Time;durP1;ratioP1;P1;durP2;ratioP2;P2;SDS_P1;SDS_P2;PMS_P1;PMS_P2;Temp;Humidity;BMP_temperature;BMP_pressure;BME280_temperature;BME280_humidity;BME280_pressure;Samples;Min_cycle;Max_cycle;Signal;HPM_P1;HPM_P2
2021/01/04 00:00:13;;;;;;;49.58;23.83;;;;;;;-0.85;100.00;95227.22;1034933;28;20037;-73
2021/01/04 00:00:50;;;;;;;48.97;24.30;;;;;;;-0.88;100.00;95227.63;1034810;28;20026;-76
2021/01/04 00:01:38;;;;;;;47.75;24.85;;;;;;;-0.94;100.00;95216.34;1025778;28;20252;-76
2021/01/04 00:02:24;;;;;;;47.38;24.13;;;;;;;-0.93;100.00;95215.38;1015152;29;20051;-74
2021/01/04 00:03:12;;;;;;;46.55;23.13;;;;;;;-0.90;100.00;95225.28;1022425;28;20042;-73
2021/01/04 00:03:43;;;;;;;46.65;22.77;;;;;;;-0.91;100.00;95223.66;1027119;28;20108;-74
2021/01/04 00:04:50;;;;;;;52.50;26.27;;;;;;;-0.88;100.00;95225.06;1027149;28;20038;-75
2021/01/04 00:05:31;;;;;;;48.05;23.83;;;;;;;-0.86;100.00;95225.66;1035083;28;20033;-74
2021/01/04 00:06:20;;;;;;;52.10;26.00;;;;;;;-0.89;100.00;95221.69;1034616;28;20022;-74
2021/01/04 00:07:09;;;;;;;47.03;25.10;;;;;;;-0.85;100.00;95227.22;1028437;28;20038;-76
2021/01/04 00:08:01;;;;;;;49.40;24.02;;;;;;;-0.87;100.00;95227.44;1027508;28;20035;-76
2021/01/04 00:09:09;;;;;;;47.88;24.63;;;;;;;-0.85;100.00;95217.69;1033487;28;20500;-74
2021/01/04 00:10:10;;;;;;;44.92;23.52;;;;;;;-0.87;100.00;95219.72;1041522;28;20439;-75
2021/01/04 00:11:03;;;;;;;48.83;26.05;;;;;;;-0.93;100.00;95210.22;1043519;28;20512;-74
2021/01/04 00:11:50;;;;;;;49.10;23.75;;;;;;;-0.90;100.00;95211.59;1038410;28;20025;-74
2021/01/04 00:12:36;;;;;;;42.40;23.83;;;;;;;-0.88;100.00;95218.13;1031233;28;20034;-74
2021/01/04 00:13:16;;;;;;;44.67;22.70;;;;;;;-0.87;100.00;95214.56;1027013;28;20588;-74
2021/01/04 00:13:46;;;;;;;46.15;23.60;;;;;;;-0.88;100.00;95214.75;1031332;28;20077;-75
2021/01/04 00:14:51;;;;;;;41.80;22.63;;;;;;;-0.90;100.00;95212.38;1042054;28;20531;-74
2021/01/04 00:15:36;;;;;;;47.05;23.65;;;;;;;-0.90;100.00;95211.59;1030442;28;20042;-74
2021/01/04 00:16:15;;;;;;;51.90;24.58;;;;;;;-0.89;100.00;95211.38;1034934;28;20034;-74
2021/01/04 00:17:04;;;;;;;50.00;26.45;;;;;;;-0.90;100.00;95209.81;1038948;28;20108;-76
2021/01/04 00:18:03;;;;;;;45.53;23.48;;;;;;;-0.91;100.00;95215.94;1035057;28;20026;-74
2021/01/04 00:18:44;;;;;;;49.85;24.95;;;;;;;-0.90;100.00;95211.59;1038750;28;20405;-73
2021/01/04 00:19:23;;;;;;;49.05;23.77;;;;;;;-0.99;100.00;95198.94;1031064;28;20026;-75
2021/01/04 00:20:18;;;;;;;48.38;26.08;;;;;;;-0.92;100.00;95211.00;1031267;28;20446;-74
2021/01/04 00:20:58;;;;;;;49.17;26.05;;;;;;;-0.90;100.00;95217.53;1032097;28;20026;-73
2021/01/04 00:21:58;;;;;;;50.53;25.30;;;;;;;-0.95;100.00;95207.03;1027764;28;20033;-74
2021/01/04 00:23:13;;;;;;;57.83;26.75;;;;;;;-0.90;100.00;95209.81;1023592;28;20152;-74
2021/01/04 00:24:06;;;;;;;48.78;24.27;;;;;;;-0.89;100.00;95216.53;1030218;28;20556;-74
2021/01/04 00:24:42;;;;;;;53.30;25.42;;;;;;;-0.89;100.00;95211.38;1029704;28;20080;-74
2021/01/04 00:25:24;;;;;;;47.20;24.55;;;;;;;-0.86;100.00;95212.78;1032867;28;20170;-73
2021/01/04 00:26:26;;;;;;;46.58;23.98;;;;;;;-0.87;100.00;95214.56;1030876;28;20064;-73
2021/01/04 00:27:07;;;;;;;47.40;22.83;;;;;;;-0.88;100.00;95214.75;1030550;28;20077;-73
2021/01/04 00:27:46;;;;;;;42.13;22.45;;;;;;;-0.88;100.00;95220.69;1034332;28;20422;-75
2021/01/04 00:28:19;;;;;;;46.60;22.92;;;;;;;-0.90;100.00;95214.97;1027178;28;20130;-75
2021/01/04 00:28:50;;;;;;;41.03;22.33;;;;;;;-0.88;100.00;95210.38;1033607;28;20488;-74
2021/01/04 00:29:20;;;;;;;47.95;25.05;;;;;;;-0.95;100.00;95202.69;1027097;28;20026;-75
2021/01/04 00:29:55;;;;;;;42.87;24.47;;;;;;;-0.89;100.00;95208.81;1023074;28;20054;-75
2021/01/04 00:30:32;;;;;;;49.08;25.08;;;;;;;-0.98;100.00;95202.31;1026773;28;20485;-76
2021/01/04 00:31:27;;;;;;;45.08;23.83;;;;;;;-0.94;100.00;95203.47;1026952;28;20027;-75
2021/01/04 00:32:09;;;;;;;48.88;23.63;;;;;;;-1.06;100.00;95187.09;1026749;28;20026;-75
2021/01/04 00:32:39;;;;;;;46.17;23.95;;;;;;;-0.96;100.00;95206.25;1027804;28;20073;-74
2021/01/04 00:33:14;;;;;;;47.37;24.17;;;;;;;-0.96;100.00;95208.06;1031013;28;20116;-76
2021/01/04 00:33:54;;;;;;;48.03;24.30;;;;;;;-0.94;100.00;95208.63;1034151;28;20685;-73
2021/01/04 00:34:28;;;;;;;46.10;24.45;;;;;;;-1.17;100.00;95177.41;1035268;28;20099;-74
2021/01/04 00:35:00;;;;;;;49.33;25.58;;;;;;;-0.92;100.00;95211.78;1034531;28;20057;-76
2021/01/04 00:35:31;;;;;;;46.40;25.13;;;;;;;-0.90;100.00;95214.19;1036970;28;20132;-73
2021/01/04 00:36:05;;;;;;;48.80;25.07;;;;;;;-0.92;100.00;95216.94;1035267;28;20088;-75
2021/01/04 00:36:52;;;;;;;45.50;24.30;;;;;;;-0.91;100.00;95215.16;1031817;28;20033;-74
2021/01/04 00:37:44;;;;;;;47.97;24.70;;;;;;;-0.90;100.00;95216.75;1033177;28;20434;-74
2021/01/04 00:38:54;;;;;;;47.90;25.88;;;;;;;-0.90;100.00;95217.53;1035916;28;20382;-76
2021/01/04 00:39:33;;;;;;;49.63;24.98;;;;;;;-0.89;100.00;95216.53;1035102;28;20038;-74
2021/01/04 00:40:45;;;;;;;51.80;25.45;;;;;;;-0.89;100.00;95216.53;1032691;28;20379;-75
2021/01/04 00:41:37;;;;;;;48.15;23.13;;;;;;;-0.92;100.00;95214.38;1033719;28;20711;-74
2021/01/04 00:42:13;;;;;;;48.20;25.42;;;;;;;-0.90;100.00;95219.31;1034933;28;20022;-74
2021/01/04 00:42:48;;;;;;;50.13;25.55;;;;;;;-1.04;100.00;95198.78;1039050;28;20407;-74
2021/01/04 00:43:22;;;;;;;49.65;25.48;;;;;;;-0.95;100.00;95212.19;1039015;28;20033;-74
2021/01/04 00:43:56;;;;;;;48.05;25.73;;;;;;;-0.99;100.00;95204.09;1032463;28;20022;-75
2021/01/04 00:44:47;;;;;;;54.30;26.70;;;;;;;-0.92;100.00;95222.09;1024738;28;20651;-74
2021/01/04 00:45:30;;;;;;;58.17;29.52;;;;;;;-1.00;100.00;95204.31;1026564;28;20120;-75
2021/01/04 00:46:01;;;;;;;51.30;27.02;;;;;;;-0.92;100.00;95218.72;1035946;28;20014;-75
2021/01/04 00:46:42;;;;;;;54.17;27.87;;;;;;;-0.93;100.00;95219.72;1034870;28;20014;-73
2021/01/04 00:47:39;;;;;;;49.10;26.05;;;;;;;-0.97;100.00;95214.19;1028837;28;20047;-73
2021/01/04 00:48:29;;;;;;;48.28;26.30;;;;;;;-0.93;100.00;95220.53;1020586;28;20496;-76
2021/01/04 00:49:06;;;;;;;50.40;26.33;;;;;;;-0.95;100.00;95212.19;1030812;28;20643;-73
2021/01/04 00:49:37;;;;;;;49.03;24.65;;;;;;;-1.04;100.00;95203.09;1023013;29;20066;-74
2021/01/04 00:50:22;;;;;;;49.60;25.50;;;;;;;-0.92;100.00;95216.94;1032459;28;20072;-73
2021/01/04 00:51:05;;;;;;;46.88;24.85;;;;;;;-0.91;100.00;95217.72;1034860;28;20088;-74
2021/01/04 00:51:47;;;;;;;49.40;25.08;;;;;;;-0.88;100.00;95218.13;1031042;28;20049;-75
2021/01/04 00:52:42;;;;;;;49.00;25.70;;;;;;;-0.92;100.00;95216.94;1041058;28;20045;-75
2021/01/04 00:53:17;;;;;;;49.08;25.00;;;;;;;-0.90;100.00;95220.13;1039158;28;20076;-75
2021/01/04 00:53:49;;;;;;;48.25;24.52;;;;;;;-0.93;100.00;95212.00;1034821;28;20634;-74
2021/01/04 00:54:45;;;;;;;48.35;25.75;;;;;;;-0.88;100.00;95218.13;1020283;29;20031;-74
2021/01/04 00:55:56;;;;;;;46.10;23.55;;;;;;;-0.98;100.00;95202.31;1022224;29;20474;-73
2021/01/04 00:56:55;;;;;;;49.63;23.90;;;;;;;-0.91;100.00;95223.66;1018800;29;20062;-73
2021/01/04 00:57:58;;;;;;;40.00;21.90;;;;;;;-1.00;100.00;95201.72;1038992;28;20109;-74
2021/01/04 00:58:54;;;;;;;38.83;21.13;;;;;;;-0.99;100.00;95208.44;1031015;28;20572;-75
2021/01/04 00:59:42;;;;;;;43.10;21.50;;;;;;;-0.93;100.00;95220.53;1024609;28;20020;-75
2021/01/04 01:00:26;;;;;;;39.88;21.90;;;;;;;-0.95;100.00;95225.06;1040939;28;20431;-75
2021/01/04 01:01:13;;;;;;;44.60;21.88;;;;;;;-0.95;100.00;95225.84;1035636;28;20033;-74
2021/01/04 01:02:08;;;;;;;42.45;22.00;;;;;;;-0.92;100.00;95227.25;1027034;28;20019;-74
2021/01/04 01:02:55;;;;;;;44.92;22.40;;;;;;;-0.98;100.00;95218.53;1026597;28;20394;-74
2021/01/04 01:04:04;;;;;;;46.70;23.08;;;;;;;-0.93;100.00;95223.09;1029751;28;20017;-73
2021/01/04 01:05:07;;;;;;;41.00;20.90;;;;;;;-0.92;100.00;95227.25;1025358;28;20023;-76
2021/01/04 01:06:07;;;;;;;41.80;22.08;;;;;;;-0.93;100.00;95228.25;1022554;28;20086;-75
2021/01/04 01:06:43;;;;;;;43.92;22.77;;;;;;;-0.91;100.00;95228.03;1022359;29;20031;-72
2021/01/04 01:07:50;;;;;;;42.40;21.95;;;;;;;-0.90;100.00;95225.28;1017501;29;20486;-76
2021/01/04 01:08:31;;;;;;;42.33;21.30;;;;;;;-0.98;100.00;95217.75;1022177;28;20034;-73
2021/01/04 01:09:02;;;;;;;38.30;21.55;;;;;;;-0.92;100.00;95227.25;1024567;28;20102;-73
2021/01/04 01:09:34;;;;;;;40.33;22.35;;;;;;;-0.93;100.00;95225.66;1018671;29;20032;-74
2021/01/04 01:10:07;;;;;;;38.00;20.85;;;;;;;-0.92;100.00;95231.59;1021261;28;20016;-74
2021/01/04 01:10:44;;;;;;;40.83;21.50;;;;;;;-1.17;100.00;95195.44;1021540;28;20038;-71
2021/01/04 01:11:21;;;;;;;38.92;22.20;;;;;;;-0.97;100.00;95224.50;1027404;28;20086;-75
2021/01/04 01:11:51;;;;;;;40.88;21.48;;;;;;;-0.93;100.00;95225.66;1025415;28;20135;-75
2021/01/04 01:12:34;;;;;;;40.70;21.87;;;;;;;-0.93;100.00;95230.03;1028819;28;20078;-74
2021/01/04 01:13:16;;;;;;;45.17;22.73;;;;;;;-0.92;100.00;95231.59;1035011;28;20022;-76
2021/01/04 01:13:52;;;;;;;41.08;21.65;;;;;;;-0.92;99.67;95226.47;1041423;28;20013;-75
2021/01/04 01:14:42;;;;;;;42.28;22.27;;;;;;;-1.02;99.87;95214.00;1034984;28;20441;-74
2021/01/04 01:15:16;;;;;;;39.55;23.48;;;;;;;-0.92;99.96;95226.47;1028087;28;20045;-76
2021/01/04 01:16:28;;;;;;;42.30;23.35;;;;;;;-0.92;99.85;95237.53;1036832;28;20017;-74
2021/01/04 01:17:38;;;;;;;45.60;23.35;;;;;;;-0.90;100.00;95230.41;1043976;28;20502;-74
2021/01/04 01:18:10;;;;;;;44.92;22.50;;;;;;;-0.90;100.00;95239.94;1035009;28;20486;-73
2021/01/04 01:19:01;;;;;;;45.40;22.25;;;;;;;-1.01;100.00;95228.44;1036452;28;20120;-74
2021/01/04 01:19:44;;;;;;;;;;;;;;;-0.92;100.00;95232.38;1035299;28;20026;-73
2021/01/04 01:20:16;;;;;;;45.80;22.75;;;;;;;-0.95;100.00;95233.59;1032682;28;20304;-76
2021/01/04 01:20:51;;;;;;;44.53;23.35;;;;;;;-0.98;100.00;95231.41;1030652;28;20058;-73
2021/01/04 01:21:21;;;;;;;51.80;25.05;;;;;;;-0.96;100.00;95231.22;1025386;28;20055;-75
2021/01/04 01:21:52;;;;;;;49.60;25.97;;;;;;;-0.92;100.00;95237.53;1023581;28;20027;-75
2021/01/04 01:22:30;;;;;;;47.17;25.03;;;;;;;-1.00;100.00;95227.47;1027043;28;20041;-73
2021/01/04 01:23:00;;;;;;;45.67;23.83;;;;;;;-0.95;100.00;95230.22;1029457;28;20019;-74
2021/01/04 01:23:31;;;;;;;50.23;25.30;;;;;;;-1.04;100.00;95219.38;1025990;28;20027;-74
2021/01/04 01:24:03;;;;;;;45.60;23.00;;;;;;;-1.00;100.00;95227.47;1030542;28;20022;-73
2021/01/04 01:24:33;;;;;;;48.78;23.73;;;;;;;-1.00;100.00;95225.69;1035125;28;20029;-73
2021/01/04 01:25:07;;;;;;;43.67;22.57;;;;;;;-0.91;100.00;95238.31;1021308;28;20061;-74
2021/01/04 01:25:43;;;;;;;43.78;24.00;;;;;;;-0.94;100.00;95242.09;1030778;28;20026;-76
2021/01/04 01:26:53;;;;;;;41.65;23.42;;;;;;;-0.93;100.00;95241.13;1030772;28;20137;-74
2021/01/04 01:27:50;;;;;;;44.75;21.88;;;;;;;-0.90;100.00;95245.09;1037023;28;20014;-76
2021/01/04 01:28:26;;;;;;;44.72;22.00;;;;;;;-0.91;100.00;95233.19;1034775;28;20032;-74
2021/01/04 01:29:14;;;;;;;43.00;22.77;;;;;;;-0.92;100.00;95237.53;1037590;28;20096;-75
2021/01/04 01:30:02;;;;;;;50.92;24.63;;;;;;;-0.88;99.47;95238.72;1032451;28;20037;-74
2021/01/04 01:30:39;;;;;;;48.03;22.50;;;;;;;-0.87;99.45;95240.31;1041967;28;20393;-74
2021/01/04 01:31:30;;;;;;;38.83;19.65;;;;;;;-0.87;97.57;95240.31;1039055;28;20520;-74
2021/01/04 01:32:24;;;;;;;25.48;13.40;;;;;;;-0.85;94.67;95235.72;1036866;28;20546;-74
2021/01/04 01:33:14;;;;;;;25.98;14.15;;;;;;;-0.84;94.60;95239.09;1038899;28;20030;-73
2021/01/04 01:34:04;;;;;;;31.88;16.17;;;;;;;-0.83;94.70;95241.47;1037779;28;20589;-74
2021/01/04 01:35:00;;;;;;;33.25;16.80;;;;;;;-0.80;94.57;95241.09;1032392;28;20026;-73
2021/01/04 01:35:52;;;;;;;37.85;18.92;;;;;;;-0.79;95.27;95241.88;1028579;28;20031;-74
2021/01/04 01:36:31;;;;;;;39.17;19.17;;;;;;;-0.81;95.49;95243.84;1038500;28;20390;-73
2021/01/04 01:37:23;;;;;;;35.95;18.35;;;;;;;-0.82;96.11;95242.28;1030441;28;20037;-75
2021/01/04 01:38:15;;;;;;;35.65;18.83;;;;;;;-0.84;96.87;95245.06;1035682;28;20477;-74
2021/01/04 01:39:27;;;;;;;34.58;18.58;;;;;;;-0.81;97.40;95244.63;1044226;28;20095;-75
2021/01/04 01:40:35;;;;;;;31.55;18.77;;;;;;;-0.83;97.13;95243.28;1026501;28;20031;-76
2021/01/04 01:41:27;;;;;;;32.38;18.25;;;;;;;-0.83;97.24;95245.84;1034922;28;20050;-75
2021/01/04 01:42:29;;;;;;;37.67;20.10;;;;;;;-0.85;97.62;95243.47;1030458;28;20056;-74
2021/01/04 01:43:35;;;;;;;36.75;19.75;;;;;;;-0.86;97.78;95249.63;1025887;28;20518;-74
2021/01/04 01:44:27;;;;;;;38.85;19.40;;;;;;;-0.89;98.40;95255.16;1037199;28;20056;-74
2021/01/04 01:45:01;;;;;;;36.60;19.33;;;;;;;-0.91;98.58;95254.56;1034165;28;20088;-74
2021/01/04 01:45:38;;;;;;;40.25;21.83;;;;;;;-0.91;98.75;95251.19;1030621;28;20108;-74
2021/01/04 01:46:35;;;;;;;40.55;22.73;;;;;;;-0.94;98.98;95252.41;1030841;28;20088;-75
2021/01/04 01:47:11;;;;;;;48.10;24.33;;;;;;;-0.91;99.21;95251.19;1026658;28;20031;-73
2021/01/04 01:47:50;;;;;;;48.45;25.73;;;;;;;-0.96;99.14;95244.88;1022800;29;20045;-74
2021/01/04 01:48:47;;;;;;;51.85;28.33;;;;;;;-0.91;99.78;95256.34;1026505;28;20042;-74
2021/01/04 01:49:49;;;;;;;49.75;25.88;;;;;;;-0.91;99.66;95252.00;1034311;28;20030;-74
2021/01/04 01:50:34;;;;;;;42.10;23.30;;;;;;;-0.94;99.65;95252.41;1034659;28;20420;-73
2021/01/04 01:51:14;;;;;;;46.05;24.15;;;;;;;-1.00;99.77;95240.34;1036344;28;20501;-75
2021/01/04 01:51:51;;;;;;;48.20;25.95;;;;;;;-0.94;99.81;95254.97;1030666;28;20034;-74
2021/01/04 01:52:28;;;;;;;49.40;25.80;;;;;;;-0.96;99.93;95246.66;1030613;28;20208;-75
2021/01/04 01:53:14;;;;;;;46.20;25.10;;;;;;;-0.94;100.00;95249.81;1033763;28;20033;-74
2021/01/04 01:54:22;;;;;;;42.83;24.13;;;;;;;-0.96;100.00;95251.81;1042736;28;20083;-74
2021/01/04 01:54:58;;;;;;;45.58;23.13;;;;;;;-0.93;99.96;95253.22;1038464;28;20528;-74
2021/01/04 01:55:35;;;;;;;43.40;23.60;;;;;;;-0.93;100.00;95256.56;1038777;28;20155;-76
2021/01/04 01:56:14;;;;;;;44.20;23.90;;;;;;;-0.95;100.00;95251.59;1034569;28;20032;-74
2021/01/04 01:56:57;;;;;;;44.88;24.35;;;;;;;-0.95;100.00;95243.88;1030866;28;20061;-73
2021/01/04 01:57:28;;;;;;;39.75;21.48;;;;;;;-0.97;100.00;95245.88;1026654;28;20402;-74
2021/01/04 01:58:33;;;;;;;46.90;24.27;;;;;;;-0.96;100.00;95254.41;1033581;28;20528;-73
2021/01/04 01:59:29;;;;;;;45.00;23.63;;;;;;;-0.98;100.00;95251.22;1032912;28;20028;-74
2021/01/04 02:00:02;;;;;;;43.10;22.10;;;;;;;-0.96;100.00;95252.59;1034902;28;20458;-73
2021/01/04 02:00:34;;;;;;;44.83;23.15;;;;;;;-0.96;100.00;95254.41;1035059;28;20104;-75
2021/01/04 02:01:13;;;;;;;43.15;22.77;;;;;;;-1.05;100.00;95237.56;1036856;28;20081;-74
2021/01/04 02:02:06;;;;;;;42.33;23.35;;;;;;;-0.96;100.00;95246.66;1035284;28;20026;-74
2021/01/04 02:02:55;;;;;;;38.95;22.42;;;;;;;-0.98;100.00;95251.22;1022336;28;20075;-73
2021/01/04 02:03:28;;;;;;;40.85;21.70;;;;;;;-0.97;100.00;95250.25;1028185;28;20117;-76
2021/01/04 02:04:00;;;;;;;40.88;21.00;;;;;;;-1.09;99.99;95231.25;1030520;28;20597;-75
2021/01/04 02:04:36;;;;;;;38.40;21.55;;;;;;;-0.99;100.00;95247.06;1030186;28;20572;-74
2021/01/04 02:05:11;;;;;;;41.40;22.17;;;;;;;-0.97;100.00;95245.09;1030015;28;20041;-74
2021/01/04 02:05:50;;;;;;;40.42;22.42;;;;;;;-0.97;100.00;95240.75;1033517;28;20430;-73
2021/01/04 02:06:32;;;;;;;43.30;22.52;;;;;;;-0.96;100.00;95244.09;1040230;28;20474;-75
2021/01/04 02:07:29;;;;;;;40.53;22.60;;;;;;;-0.95;100.00;95249.03;1042948;28;20009;-72
2021/01/04 02:08:01;;;;;;;41.35;21.80;;;;;;;-1.05;100.00;95224.72;1033854;28;20489;-73
2021/01/04 02:08:33;;;;;;;39.97;21.42;;;;;;;-0.98;100.00;95243.50;1030451;28;20022;-73
2021/01/04 02:09:38;;;;;;;38.13;20.20;;;;;;;-1.02;100.00;95237.19;1030541;28;20038;-73
2021/01/04 02:10:18;;;;;;;40.83;21.27;;;;;;;-0.97;100.00;95245.88;1018964;29;20028;-76
2021/01/04 02:10:52;;;;;;;38.33;20.05;;;;;;;-1.19;99.75;95214.44;1012334;29;20029;-75
2021/01/04 02:11:52;;;;;;;37.22;20.25;;;;;;;-0.99;99.78;95247.88;1021641;28;20035;-76
2021/01/04 02:13:17;;;;;;;38.45;19.85;;;;;;;-0.97;99.86;95239.94;1031689;28;20018;-73
2021/01/04 02:14:19;;;;;;;31.98;17.63;;;;;;;-1.03;99.98;95240.75;1026356;28;20022;-74
2021/01/04 02:14:58;;;;;;;36.00;18.83;;;;;;;-0.97;99.63;95245.88;1005982;29;20025;-75
2021/01/04 02:15:35;;;;;;;34.95;18.80;;;;;;;-0.97;99.85;95245.09;1012000;29;20524;-74
2021/01/04 02:16:11;;;;;;;39.45;20.40;;;;;;;-0.96;100.00;95250.03;1019820;29;20499;-74
2021/01/04 02:17:02;;;;;;;41.72;20.88;;;;;;;-0.96;100.00;95249.25;1036647;28;20029;-75
2021/01/04 02:18:03;;;;;;;38.92;20.50;;;;;;;-0.93;99.67;95251.41;1030827;28;20022;-74
2021/01/04 02:19:04;;;;;;;36.05;20.23;;;;;;;-0.92;99.99;95247.06;1042847;28;20025;-74
2021/01/04 02:19:41;;;;;;;34.33;18.48;;;;;;;-0.92;99.70;95245.28;1042536;28;20043;-74
2021/01/04 02:20:16;;;;;;;36.83;19.80;;;;;;;-0.92;100.00;95240.13;1041736;28;20361;-75
2021/01/04 02:20:47;;;;;;;33.65;18.67;;;;;;;-0.92;99.83;95239.34;1032943;28;20516;-75
2021/01/04 02:21:36;;;;;;;34.93;19.80;;;;;;;-0.93;99.01;95243.69;1033053;28;20113;-72
2021/01/04 02:22:21;;;;;;;37.45;20.88;;;;;;;-0.91;99.07;95239.13;1037777;28;20022;-74
2021/01/04 02:23:10;;;;;;;34.85;19.55;;;;;;;-0.93;98.83;95235.97;1043318;28;20045;-75
2021/01/04 02:23:43;;;;;;;33.05;17.95;;;;;;;-0.93;99.11;95246.28;1042523;28;20059;-73
2021/01/04 02:24:15;;;;;;;35.63;19.35;;;;;;;-0.92;99.15;95237.53;1038584;28;20033;-74
2021/01/04 02:24:45;;;;;;;34.30;20.05;;;;;;;-0.91;98.97;95241.69;1034498;28;20479;-74
2021/01/04 02:25:16;;;;;;;31.57;18.47;;;;;;;-0.93;98.85;95240.34;1038069;28;20056;-74
2021/01/04 02:25:47;;;;;;;34.40;19.97;;;;;;;-0.95;98.89;95233.59;1038636;28;20089;-75
2021/01/04 02:26:20;;;;;;;35.33;20.10;;;;;;;-0.92;98.97;95242.69;1026535;28;20371;-74
2021/01/04 02:27:16;;;;;;;37.28;21.00;;;;;;;-0.91;99.10;95239.13;1032456;28;20113;-74
2021/01/04 02:27:49;;;;;;;35.70;18.60;;;;;;;-0.95;99.06;95232.78;1034770;28;20030;-73
2021/01/04 02:28:23;;;;;;;34.78;20.20;;;;;;;-1.02;98.69;95226.88;1032450;28;20033;-73
2021/01/04 02:29:07;;;;;;;32.88;18.85;;;;;;;-0.99;98.97;95226.47;1022539;29;20138;-75
2021/01/04 02:29:37;;;;;;;34.72;19.23;;;;;;;-0.95;98.80;95243.09;1022581;29;20506;-75
2021/01/04 02:30:08;;;;;;;34.33;19.40;;;;;;;-0.98;98.72;95233.19;1028318;28;20027;-75
2021/01/04 02:30:39;;;;;;;34.53;19.70;;;;;;;-1.03;98.87;95220.16;1026572;28;20026;-75
2021/01/04 02:31:09;;;;;;;36.37;21.23;;;;;;;-0.92;98.63;95242.69;1026704;28;20098;-73
2021/01/04 02:31:42;;;;;;;34.97;19.53;;;;;;;-0.92;98.58;95247.84;1027300;28;20038;-74
2021/01/04 02:32:13;;;;;;;35.28;19.83;;;;;;;-0.92;98.82;95237.53;1030678;28;20539;-76
2021/01/04 02:32:43;;;;;;;33.47;19.33;;;;;;;-1.01;98.98;95223.31;1030422;28;20066;-73
2021/01/04 02:33:15;;;;;;;32.50;20.27;;;;;;;-0.95;98.81;95237.94;1038863;28;20033;-74
2021/01/04 02:33:45;;;;;;;33.78;20.70;;;;;;;-0.93;98.58;95248.84;1034420;28;20444;-76
2021/01/04 02:34:17;;;;;;;40.47;20.30;;;;;;;-1.05;98.74;95224.72;1022686;29;20067;-76
2021/01/04 02:34:52;;;;;;;35.55;21.13;;;;;;;-0.98;98.84;95235.78;1029983;28;20064;-71
2021/01/04 02:35:23;;;;;;;35.65;20.77;;;;;;;-0.97;98.58;95239.94;1038386;28;20543;-76
2021/01/04 02:35:53;;;;;;;33.67;19.60;;;;;;;-0.99;98.56;95236.78;1026569;28;20027;-74
2021/01/04 02:36:24;;;;;;;35.00;19.27;;;;;;;-1.02;98.18;95226.88;1030551;28;20030;-74
2021/01/04 02:36:55;;;;;;;34.75;20.70;;;;;;;-1.01;98.22;95226.66;1026290;28;20064;-74
2021/01/04 02:37:26;;;;;;;32.30;19.80;;;;;;;-1.00;98.22;95230.06;1026773;28;20552;-74
2021/01/04 02:37:56;;;;;;;33.33;19.50;;;;;;;-0.93;97.99;95241.13;1026669;28;20109;-74
2021/01/04 02:38:28;;;;;;;34.43;19.33;;;;;;;-0.91;98.82;95239.13;1033285;28;20022;-74
2021/01/04 02:39:28;;;;;;;32.67;20.02;;;;;;;-0.90;98.27;95240.72;1034973;28;20034;-74
2021/01/04 02:39:59;;;;;;;29.98;17.25;;;;;;;-0.86;98.38;95246.25;1038643;28;20035;-73
2021/01/04 02:40:30;;;;;;;31.23;18.35;;;;;;;-0.85;98.27;95247.81;1030108;28;20030;-72
2021/01/04 02:41:00;;;;;;;27.07;15.93;;;;;;;-0.85;97.56;95246.03;1030479;28;20066;-77
2021/01/04 02:41:39;;;;;;;31.70;17.00;;;;;;;-0.87;97.07;95244.66;1033649;28;20100;-73
2021/01/04 02:42:18;;;;;;;35.65;18.63;;;;;;;-0.86;97.00;95247.03;1038640;28;20510;-74
2021/01/04 02:42:49;;;;;;;31.95;17.88;;;;;;;-0.84;96.78;95245.06;1038833;28;20029;-75
2021/01/04 02:43:20;;;;;;;30.77;18.17;;;;;;;-0.88;96.85;95241.28;1034648;28;20492;-74
2021/01/04 02:43:51;;;;;;;28.92;17.63;;;;;;;-0.87;97.06;95245.47;1027433;28;20098;-74
2021/01/04 02:44:22;;;;;;;30.30;17.90;;;;;;;-0.94;96.98;95236.94;1026726;28;20593;-74
2021/01/04 02:44:53;;;;;;;31.05;19.23;;;;;;;-0.95;97.16;95235.38;1030168;28;20030;-75
2021/01/04 02:45:29;;;;;;;29.90;17.92;;;;;;;-0.92;97.15;95229.03;1027750;28;20317;-75
2021/01/04 02:46:02;;;;;;;30.15;18.40;;;;;;;-0.87;96.75;95244.66;1026584;28;20030;-75
2021/01/04 02:46:33;;;;;;;31.23;19.00;;;;;;;-0.92;96.93;95236.75;1022601;29;20041;-75
2021/01/04 02:47:57;;;;;;;30.55;18.95;;;;;;;-0.86;96.61;95243.69;1032184;28;20601;-75
2021/01/04 02:48:47;;;;;;;32.67;18.52;;;;;;;-1.04;96.87;95211.66;1024801;28;20042;-74
2021/01/04 02:49:26;;;;;;;30.58;17.48;;;;;;;-0.91;97.01;95233.97;1026546;28;20101;-76
2021/01/04 02:50:16;;;;;;;29.17;18.02;;;;;;;-1.12;97.08;95198.19;1034666;28;20088;-74
2021/01/04 02:50:56;;;;;;;32.15;18.00;;;;;;;-0.89;97.29;95246.66;1038038;28;20059;-74
2021/01/04 02:51:28;;;;;;;32.92;18.48;;;;;;;-0.90;96.96;95238.13;1038595;28;20029;-76
2021/01/04 02:52:04;;;;;;;34.15;19.23;;;;;;;-0.87;97.35;95249.78;1034503;28;20682;-73
2021/01/04 02:52:55;;;;;;;31.38;18.95;;;;;;;-0.87;97.06;95248.03;1031912;28;20522;-73
2021/01/04 02:53:39;;;;;;;30.92;18.38;;;;;;;-0.88;97.32;95249.00;1027027;28;20085;-74
2021/01/04 02:54:22;;;;;;;31.73;18.30;;;;;;;-0.94;97.30;95242.09;1034009;28;20026;-73
2021/01/04 02:54:57;;;;;;;34.30;20.13;;;;;;;-0.89;97.57;95252.59;1034036;28;20109;-75
2021/01/04 02:55:52;;;;;;;32.58;19.23;;;;;;;-0.89;97.62;95242.28;1026787;28;20129;-71
2021/01/04 02:56:41;;;;;;;29.08;17.38;;;;;;;-0.89;97.22;95244.09;1034671;28;20117;-74
2021/01/04 02:57:29;;;;;;;32.08;18.55;;;;;;;-0.97;97.48;95227.06;1037739;28;20092;-74
2021/01/04 02:58:17;;;;;;;35.15;19.35;;;;;;;-0.89;97.44;95242.28;1037952;28;20064;-74
2021/01/04 02:59:03;;;;;;;31.08;17.38;;;;;;;-0.92;97.29;95250.41;1035599;28;20038;-74
2021/01/04 02:59:42;;;;;;;33.47;18.40;;;;;;;-0.93;97.41;95254.00;1038709;28;20029;-75
2021/01/04 03:00:13;;;;;;;33.55;18.77;;;;;;;-0.95;97.63;95248.25;1035443;28;20030;-74
2021/01/04 03:00:46;;;;;;;36.72;20.45;;;;;;;-0.92;97.75;95247.84;1037814;28;20430;-74
2021/01/04 03:01:31;;;;;;;36.58;19.65;;;;;;;-0.92;97.98;95247.84;1033154;28;20026;-75
2021/01/04 03:02:06;;;;;;;32.63;19.15;;;;;;;-0.91;97.87;95248.63;1030472;28;20119;-73
2021/01/04 03:02:47;;;;;;;34.35;19.05;;;;;;;-0.98;98.06;95238.34;1032800;28;20021;-76
2021/01/04 03:03:18;;;;;;;36.08;19.92;;;;;;;-0.89;97.90;95247.44;1030671;28;20026;-74
2021/01/04 03:03:48;;;;;;;37.10;19.97;;;;;;;-1.00;98.10;95230.06;1026567;28;20085;-74
2021/01/04 03:04:20;;;;;;;35.23;21.07;;;;;;;-0.92;98.48;95250.41;1029443;28;20041;-73
2021/01/04 03:04:50;;;;;;;38.05;21.52;;;;;;;-0.88;98.72;95246.44;1030134;28;20048;-73
2021/01/04 03:05:22;;;;;;;37.13;20.40;;;;;;;-0.90;98.52;95251.03;1034436;28;20504;-74
2021/01/04 03:05:53;;;;;;;35.75;20.48;;;;;;;-0.91;98.99;95243.47;1030888;28;20030;-73
2021/01/04 03:06:35;;;;;;;33.73;20.33;;;;;;;-0.88;98.91;95249.00;1038345;28;20033;-76
2021/01/04 03:07:10;;;;;;;37.88;20.85;;;;;;;-0.87;98.63;95250.63;1030662;28;20041;-74
2021/01/04 03:07:40;;;;;;;36.35;20.52;;;;;;;-1.06;98.96;95220.56;1032688;28;20116;-76
2021/01/04 03:08:11;;;;;;;36.40;20.20;;;;;;;-0.96;98.97;95237.16;1026108;28;20042;-74
2021/01/04 03:08:41;;;;;;;36.10;20.63;;;;;;;-0.99;98.78;95236.78;1027218;28;20035;-77
2021/01/04 03:09:12;;;;;;;36.27;20.23;;;;;;;-0.91;98.60;95253.78;1030466;28;20073;-74
2021/01/04 03:09:44;;;;;;;35.97;20.80;;;;;;;-0.90;98.95;95252.81;1030804;28;20022;-73
2021/01/04 03:10:18;;;;;;;32.85;21.20;;;;;;;-0.92;98.96;95249.63;1030134;28;20460;-74
2021/01/04 03:10:48;;;;;;;33.90;20.50;;;;;;;-0.96;98.93;95244.88;1022657;28;20035;-74
2021/01/04 03:11:19;;;;;;;34.73;19.73;;;;;;;-0.96;98.92;95241.53;1030695;28;20383;-76
2021/01/04 03:11:49;;;;;;;34.00;20.57;;;;;;;-0.89;98.95;95246.66;1026650;28;20022;-73
2021/01/04 03:12:30;;;;;;;35.93;20.73;;;;;;;-0.92;98.73;95242.69;1030314;28;20150;-72
2021/01/04 03:13:03;;;;;;;;;;;;;;;-0.91;98.49;95243.47;1023032;29;20035;-74
2021/01/04 03:14:10;;;;;;;35.20;19.92;;;;;;;-0.90;98.37;95245.09;1030598;28;19913;-74
2021/01/04 03:14:55;;;;;;;38.80;21.10;;;;;;;-0.88;98.79;95246.44;1035599;28;20108;-74
2021/01/04 03:15:41;;;;;;;35.63;20.20;;;;;;;-0.87;98.82;95250.63;1038473;28;20103;-71